Time;durP1;ratioP1;P1;durP2;ratioP2;P2;SDS_P1;SDS_P2;PMS_P1;PMS_P2;Temp;Humidity;BMP_temperature;BMP_pressure;BME280_temperature;BME280_humidity;BME280_pressure;Samples;Min_cycle;Max_cycle;Signal;HPM_P1;HPM_P2
2023/03/25 00:01:28;;;;;;;7.35;4.30;;;9.90;99.90;;;;;;2603249;54;20085;31
2023/03/25 00:04:04;;;;;;;7.15;4.40;;;9.90;99.90;;;;;;2603200;54;20089;31
2023/03/25 00:06:44;;;;;;;10.43;5.10;;;9.80;99.90;;;;;;2603160;54;20030;31
2023/03/25 00:09:20;;;;;;;7.22;4.50;;;9.80;99.90;;;;;;2603507;54;20056;31
2023/03/25 00:11:55;;;;;;;7.30;4.57;;;9.80;99.90;;;;;;2603131;54;20057;31
2023/03/25 00:14:31;;;;;;;9.82;4.30;;;9.80;99.90;;;;;;2603379;54;20866;31
2023/03/25 00:17:06;;;;;;;;;;;9.70;99.90;;;;;;2603647;54;20132;31
2023/03/25 00:19:44;;;;;;;6.85;4.38;;;9.70;99.90;;;;;;2621864;46;19938;31
2023/03/25 00:22:23;;;;;;;8.65;3.85;;;9.70;99.90;;;;;;2603290;54;20891;31
2023/03/25 00:25:00;;;;;;;6.50;3.95;;;9.70;99.90;;;;;;2701738;39;21506;31
2023/03/25 00:27:37;;;;;;;8.05;3.85;;;9.60;99.90;;;;;;2603017;54;20904;31
2023/03/25 00:30:15;;;;;;;4.90;3.22;;;9.60;99.90;;;;;;2602331;54;20150;31
2023/03/25 00:32:52;;;;;;;5.35;2.80;;;9.70;99.90;;;;;;2602406;54;20022;31
2023/03/25 00:35:28;;;;;;;5.55;2.63;;;9.60;99.90;;;;;;2603046;54;20139;31
2023/03/25 00:38:10;;;;;;;6.78;3.60;;;9.60;99.90;;;;;;2603260;54;20081;31
2023/03/25 00:40:47;;;;;;;3.97;2.72;;;9.60;99.90;;;;;;2621478;47;20802;31
2023/03/25 00:43:23;;;;;;;6.40;3.90;;;9.60;99.90;;;;;;2602946;54;20031;31
2023/03/25 00:46:00;;;;;;;8.45;4.05;;;9.60;99.90;;;;;;2603413;54;20027;31
2023/03/25 00:48:40;;;;;;;5.90;2.80;;;9.50;99.90;;;;;;2603244;54;20033;31
2023/03/25 00:51:20;;;;;;;5.05;2.55;;;9.50;99.90;;;;;;2603054;54;20963;31
2023/03/25 00:54:02;;;;;;;7.28;3.63;;;9.50;99.90;;;;;;2603763;54;20034;31
2023/03/25 00:56:37;;;;;;;6.45;2.95;;;9.50;99.90;;;;;;2622389;46;20896;31
2023/03/25 00:59:15;;;;;;;7.13;3.80;;;9.50;99.90;;;;;;2603189;54;20910;31
2023/03/25 01:01:51;;;;;;;7.47;2.88;;;9.50;99.90;;;;;;2603722;54;20085;31
2023/03/25 01:04:28;;;;;;;7.50;3.45;;;9.50;99.90;;;;;;2603285;54;20034;31
2023/03/25 01:07:06;;;;;;;11.20;4.22;;;9.50;99.90;;;;;;2603970;54;20026;31
2023/03/25 01:09:47;;;;;;;6.63;3.43;;;9.50;99.90;;;;;;2603981;54;20775;31
2023/03/25 01:12:24;;;;;;;6.32;3.35;;;9.40;99.90;;;;;;2603724;54;20266;31
2023/03/25 01:15:05;;;;;;;5.10;3.47;;;9.40;99.90;;;;;;2622016;46;20038;31
2023/03/25 01:17:43;;;;;;;5.70;2.95;;;9.40;99.90;;;;;;2603035;54;20027;31
2023/03/25 01:20:19;;;;;;;4.40;3.15;;;9.40;99.90;;;;;;2603878;54;20753;31
2023/03/25 01:22:55;;;;;;;6.45;3.50;;;9.40;99.90;;;;;;2609404;46;20896;31
2023/03/25 01:25:35;;;;;;;6.45;3.25;;;9.30;99.90;;;;;;2603862;54;20122;31
2023/03/25 01:28:14;;;;;;;4.95;2.95;;;9.30;99.90;;;;;;2602924;54;20986;31
2023/03/25 01:30:52;;;;;;;9.00;3.87;;;9.30;99.90;;;;;;2621523;46;20022;31
2023/03/25 01:33:24;;;;;;;7.43;4.05;;;9.30;99.90;;;;;;2702322;39;20623;31
2023/03/25 01:36:00;;;;;;;6.15;3.90;;;9.30;99.90;;;;;;2603832;54;20878;31
2023/03/25 01:38:37;;;;;;;6.85;3.95;;;9.20;99.90;;;;;;2603913;54;20032;31
2023/03/25 01:41:17;;;;;;;8.53;4.40;;;9.20;99.90;;;;;;2617102;46;20058;31
2023/03/25 01:44:08;;;;;;;7.35;4.85;;;9.20;99.90;;;;;;2622090;46;20022;31
2023/03/25 01:46:44;;;;;;;6.50;4.25;;;9.20;99.90;;;;;;2622006;46;20052;31
2023/03/25 01:49:22;;;;;;;5.97;3.28;;;9.10;99.90;;;;;;2622492;46;20026;31
2023/03/25 01:52:04;;;;;;;7.70;3.85;;;9.10;99.90;;;;;;2602924;54;20089;31
2023/03/25 01:54:41;;;;;;;9.32;4.30;;;9.00;99.90;;;;;;2702410;39;21622;31
2023/03/25 01:57:22;;;;;;;5.15;3.72;;;9.00;99.90;;;;;;2603656;54;20081;31
2023/03/25 02:00:01;;;;;;;9.20;4.40;;;8.90;99.90;;;;;;2602746;54;20027;31
2023/03/25 02:02:49;;;;;;;6.43;4.00;;;8.90;99.90;;;;;;2603846;54;20051;31
2023/03/25 02:05:28;;;;;;;5.25;3.05;;;8.90;99.90;;;;;;2603024;54;20038;31
2023/03/25 02:08:08;;;;;;;7.50;3.40;;;8.90;99.90;;;;;;2603640;54;20030;31
2023/03/25 02:10:47;;;;;;;8.65;3.92;;;8.90;99.90;;;;;;2602963;54;20689;31
2023/03/25 02:13:28;;;;;;;5.75;2.97;;;8.90;99.90;;;;;;2701485;39;21888;31
2023/03/25 02:16:21;;;;;;;9.63;3.92;;;8.80;99.90;;;;;;2603709;54;20023;31
2023/03/25 02:19:08;;;;;;;7.00;3.83;;;8.80;99.90;;;;;;2603459;54;20050;31
2023/03/25 02:22:00;;;;;;;5.73;3.47;;;8.80;99.90;;;;;;2622350;46;20029;31
2023/03/25 02:25:11;;;;;;;6.57;3.90;;;8.80;99.90;;;;;;2603501;54;19934;31
2023/03/25 02:27:53;;;;;;;10.88;5.97;;;8.80;99.90;;;;;;2603422;54;20034;31
2023/03/25 02:30:54;;;;;;;13.25;8.05;;;8.70;99.90;;;;;;2603647;54;20876;31
2023/03/25 02:36:21;;;;;;;32.35;19.40;;;8.60;99.90;;;;;;2603705;54;20572;31
2023/03/25 02:39:00;;;;;;;27.58;16.20;;;8.50;99.90;;;;;;2603367;54;20526;31
2023/03/25 02:41:39;;;;;;;22.02;14.60;;;8.50;99.90;;;;;;2603675;54;20031;31
2023/03/25 02:44:15;;;;;;;20.35;12.13;;;8.40;99.90;;;;;;2702158;39;21624;31
2023/03/25 02:46:52;;;;;;;17.40;11.55;;;8.40;99.90;;;;;;2702097;39;21684;31
2023/03/25 02:49:30;;;;;;;14.95;9.55;;;8.30;99.90;;;;;;2603648;54;20096;31
2023/03/25 02:52:05;;;;;;;12.38;8.48;;;8.30;99.90;;;;;;2603552;54;20603;31
2023/03/25 02:54:43;;;;;;;15.23;9.18;;;8.30;99.90;;;;;;2603752;54;20085;31
2023/03/25 02:57:20;;;;;;;13.65;8.65;;;8.30;99.90;;;;;;2603739;54;20026;31
2023/03/25 02:59:56;;;;;;;13.55;8.55;;;8.30;99.90;;;;;;2773570;31;25214;31
2023/03/25 03:02:34;;;;;;;11.43;7.90;;;8.20;99.90;;;;;;2602804;54;20031;31
2023/03/25 03:05:26;;;;;;;12.05;7.30;;;8.20;99.90;;;;;;2603597;54;20034;31
2023/03/25 03:08:13;;;;;;;14.27;7.82;;;8.20;99.90;;;;;;2603445;54;20027;31
2023/03/25 03:10:53;;;;;;;10.43;6.85;;;8.20;99.90;;;;;;2603417;54;20044;31
2023/03/25 03:13:33;;;;;;;12.35;6.07;;;8.20;99.90;;;;;;2621613;46;20027;31
2023/03/25 03:16:10;;;;;;;9.27;5.37;;;8.20;99.90;;;;;;2603654;54;20132;31
2023/03/25 03:18:51;;;;;;;12.00;6.30;;;8.20;99.90;;;;;;2603618;54;20775;31
2023/03/25 03:21:29;;;;;;;8.53;5.80;;;8.20;99.90;;;;;;2622154;46;20061;31
2023/03/25 03:24:07;;;;;;;11.50;6.20;;;8.20;99.90;;;;;;2701308;39;21477;31
2023/03/25 03:26:52;;;;;;;8.32;4.57;;;8.20;99.90;;;;;;2602718;54;20042;31
2023/03/25 03:29:31;;;;;;;8.37;5.20;;;8.20;99.90;;;;;;2603513;54;20473;31
2023/03/25 03:32:08;;;;;;;8.55;4.78;;;8.20;99.90;;;;;;2701886;39;21415;31
2023/03/25 03:34:46;;;;;;;11.10;4.60;;;8.20;99.90;;;;;;2603318;54;20583;31
2023/03/25 03:37:23;;;;;;;13.48;4.95;;;8.20;99.90;;;;;;2603364;54;19941;31
2023/03/25 03:39:58;;;;;;;8.88;4.55;;;8.20;99.90;;;;;;2603476;54;20022;31
2023/03/25 03:42:40;;;;;;;13.15;5.90;;;8.20;99.90;;;;;;2621782;46;20081;31
2023/03/25 03:45:16;;;;;;;11.00;5.20;;;8.20;99.90;;;;;;2603404;54;20049;31
2023/03/25 03:47:53;;;;;;;8.25;4.60;;;8.10;99.90;;;;;;2603536;54;20850;31
2023/03/25 03:50:30;;;;;;;8.20;5.60;;;8.10;99.90;;;;;;2615025;46;20086;31
2023/03/25 03:53:08;;;;;;;8.85;5.45;;;8.10;99.90;;;;;;2602683;54;20026;31
2023/03/25 03:55:45;;;;;;;9.25;5.60;;;8.20;99.90;;;;;;2720007;39;21642;31
2023/03/25 03:58:28;;;;;;;6.95;4.40;;;8.20;99.90;;;;;;2603741;54;20880;31
2023/03/25 04:01:08;;;;;;;8.57;4.75;;;8.20;99.90;;;;;;2603265;54;20033;31
2023/03/25 04:03:45;;;;;;;11.40;5.38;;;8.20;99.90;;;;;;2621809;46;20064;31
2023/03/25 04:06:26;;;;;;;8.27;5.88;;;8.20;99.90;;;;;;2603221;54;20026;31
2023/03/25 04:11:35;;;;;;;6.75;4.40;;;8.20;99.90;;;;;;2621681;46;20026;31
2023/03/25 04:14:15;;;;;;;6.65;4.10;;;8.20;99.90;;;;;;2603190;54;20100;31
2023/03/25 04:16:51;;;;;;;9.02;4.25;;;8.20;99.90;;;;;;2621842;46;19941;31
2023/03/25 04:19:27;;;;;;;9.55;5.30;;;8.20;99.90;;;;;;2603472;54;20035;31
2023/03/25 04:22:01;;;;;;;9.25;5.18;;;8.20;99.90;;;;;;2603209;54;20038;31
2023/03/25 04:24:40;;;;;;;8.63;4.65;;;8.20;99.90;;;;;;2603124;54;20088;31
2023/03/25 04:27:16;;;;;;;9.55;5.03;;;8.20;99.90;;;;;;2621557;46;20052;31
2023/03/25 04:29:56;;;;;;;10.23;4.50;;;8.20;99.90;;;;;;2602572;54;21747;31
2023/03/25 04:32:33;;;;;;;9.15;5.00;;;8.20;99.90;;;;;;2603223;54;20671;31
2023/03/25 04:35:11;;;;;;;7.63;4.93;;;8.30;99.90;;;;;;2701315;39;20576;31
2023/03/25 04:37:48;;;;;;;8.13;4.95;;;8.20;99.90;;;;;;2621833;47;20022;31
2023/03/25 04:40:29;;;;;;;9.10;5.15;;;8.20;99.90;;;;;;2603178;54;20906;31
2023/03/25 04:43:07;;;;;;;8.95;5.25;;;8.20;99.90;;;;;;2602279;54;20038;31
2023/03/25 04:45:53;;;;;;;10.20;5.70;;;8.20;99.90;;;;;;2602294;54;20812;31
2023/03/25 04:48:31;;;;;;;7.55;5.07;;;8.20;99.90;;;;;;2603119;54;20038;31
2023/03/25 04:51:09;;;;;;;7.47;5.20;;;8.20;99.90;;;;;;2603042;54;20037;31
2023/03/25 04:53:44;;;;;;;10.03;5.97;;;8.20;99.90;;;;;;2603312;54;20033;31
2023/03/25 04:56:22;;;;;;;11.15;5.53;;;8.20;99.90;;;;;;2621672;47;20226;31
2023/03/25 04:58:58;;;;;;;11.23;5.18;;;8.20;99.90;;;;;;2603185;54;20030;31
2023/03/25 05:01:40;;;;;;;8.45;4.75;;;8.20;99.90;;;;;;2603103;54;20027;31
2023/03/25 05:04:18;;;;;;;8.33;4.67;;;8.20;99.90;;;;;;2603146;54;20056;31
2023/03/25 05:06:53;;;;;;;7.70;4.72;;;8.20;99.90;;;;;;2621697;47;20057;31
2023/03/25 05:09:31;;;;;;;6.88;4.18;;;8.20;99.90;;;;;;2603098;54;20156;31
2023/03/25 05:12:10;;;;;;;6.30;4.97;;;8.20;99.90;;;;;;2603205;54;20030;31
2023/03/25 05:14:45;;;;;;;10.93;6.20;;;8.20;99.90;;;;;;2602630;54;20128;31
2023/03/25 05:17:28;;;;;;;7.95;4.60;;;8.20;99.90;;;;;;2602246;54;20092;31
2023/03/25 05:20:07;;;;;;;8.85;4.72;;;8.20;99.90;;;;;;2602985;54;20046;31
2023/03/25 05:22:44;;;;;;;7.05;4.68;;;8.20;99.90;;;;;;2603162;54;20553;31
2023/03/25 05:25:21;;;;;;;9.63;5.40;;;8.30;99.90;;;;;;2701338;39;20567;31
2023/03/25 05:28:01;;;;;;;7.22;4.30;;;8.30;99.90;;;;;;2602309;54;20034;31
2023/03/25 05:30:38;;;;;;;7.55;4.70;;;8.30;99.90;;;;;;2621220;47;19983;31
2023/03/25 05:33:18;;;;;;;10.60;4.50;;;8.30;99.90;;;;;;2602365;54;20203;31
2023/03/25 05:36:04;;;;;;;10.27;4.72;;;8.40;99.90;;;;;;2603262;54;20031;31
2023/03/25 05:38:40;;;;;;;7.78;4.25;;;8.40;99.90;;;;;;2721379;39;21038;31
2023/03/25 05:41:16;;;;;;;5.68;3.95;;;8.40;99.90;;;;;;2702535;39;20500;31
2023/03/25 05:43:54;;;;;;;7.50;4.22;;;8.40;99.90;;;;;;2603877;54;20033;31
2023/03/25 05:46:30;;;;;;;9.45;4.45;;;8.60;99.90;;;;;;2622617;46;20884;31
2023/03/25 05:49:08;;;;;;;7.25;4.60;;;8.70;99.90;;;;;;2603925;54;20821;31
2023/03/25 05:51:44;;;;;;;8.45;4.75;;;8.80;99.90;;;;;;2702498;39;21434;31
2023/03/25 05:54:23;;;;;;;8.40;3.95;;;9.00;99.90;;;;;;2602947;54;20029;31
2023/03/25 05:57:00;;;;;;;7.50;3.95;;;9.20;99.90;;;;;;2603709;54;20909;31
2023/03/25 05:59:37;;;;;;;5.03;3.33;;;9.70;99.90;;;;;;2603871;54;20027;31
2023/03/25 06:02:15;;;;;;;5.90;2.97;;;10.20;99.90;;;;;;2622229;46;20009;31
2023/03/25 06:04:55;;;;;;;7.23;3.17;;;10.80;99.90;;;;;;2603706;54;20034;31
2023/03/25 06:07:36;;;;;;;7.00;3.30;;;11.40;99.90;;;;;;2603755;54;20030;31
2023/03/25 06:10:11;;;;;;;7.27;3.47;;;11.80;99.90;;;;;;2622079;46;20048;31
2023/03/25 06:12:51;;;;;;;5.38;2.65;;;12.30;99.90;;;;;;2603634;54;20046;31
2023/03/25 06:15:32;;;;;;;8.73;2.85;;;12.80;99.90;;;;;;2603624;54;20884;31
2023/03/25 06:18:09;;;;;;;3.90;2.80;;;13.10;99.90;;;;;;2603851;54;20022;31
2023/03/25 06:20:50;;;;;;;4.53;2.55;;;13.10;99.90;;;;;;2603763;54;20026;31
2023/03/25 06:23:26;;;;;;;6.28;2.80;;;12.90;99.90;;;;;;2621849;46;20100;31
2023/03/25 06:26:03;;;;;;;7.82;3.10;;;12.80;99.90;;;;;;2603448;54;20096;31
2023/03/25 06:28:39;;;;;;;7.63;3.10;;;12.60;99.90;;;;;;2702143;39;21479;31
2023/03/25 06:31:15;;;;;;;5.65;3.20;;;12.50;99.90;;;;;;2602754;54;20291;31
2023/03/25 06:33:53;;;;;;;;;;;12.30;99.90;;;;;;2603231;54;20835;31
2023/03/25 06:36:37;;;;;;;7.90;3.05;;;12.20;99.90;;;;;;2702299;39;20954;31
2023/03/25 06:39:15;;;;;;;7.20;2.65;;;12.10;99.90;;;;;;2602780;54;20026;31
2023/03/25 06:41:52;;;;;;;3.95;2.35;;;12.00;99.90;;;;;;2603334;54;20026;31
2023/03/25 06:44:35;;;;;;;5.18;3.00;;;11.90;99.90;;;;;;2621883;46;20026;31
2023/03/25 06:47:38;;;;;;;5.32;2.72;;;11.90;99.90;;;;;;2603129;54;20026;31
2023/03/25 06:50:19;;;;;;;5.00;2.40;;;11.80;99.90;;;;;;2622011;46;19942;31
2023/03/25 06:53:02;;;;;;;8.13;2.80;;;11.80;99.90;;;;;;2603622;54;20037;31
2023/03/25 06:55:38;;;;;;;5.93;2.33;;;11.70;99.90;;;;;;2622030;46;20097;31
2023/03/25 06:58:13;;;;;;;;;;;11.70;99.90;;;;;;2621977;46;20075;31
2023/03/25 07:00:49;;;;;;;6.85;2.63;;;11.70;99.90;;;;;;2603344;54;19935;31
2023/03/25 07:03:24;;;;;;;5.63;2.95;;;11.70;99.90;;;;;;2622172;46;20027;31
2023/03/25 07:06:04;;;;;;;7.45;3.10;;;11.70;99.90;;;;;;2603617;54;20023;31
2023/03/25 07:08:43;;;;;;;7.88;2.72;;;11.60;99.90;;;;;;2602725;54;20031;31
2023/03/25 07:11:21;;;;;;;7.20;3.10;;;11.60;99.90;;;;;;2621991;46;20792;31
2023/03/25 07:14:04;;;;;;;7.65;3.30;;;11.60;99.90;;;;;;2603618;54;20250;31
2023/03/25 07:16:42;;;;;;;5.05;3.45;;;11.60;99.90;;;;;;2603387;54;20099;31
2023/03/25 07:19:18;;;;;;;4.93;2.95;;;11.50;99.90;;;;;;2603527;54;20028;31
2023/03/25 07:21:56;;;;;;;6.33;3.60;;;11.50;99.90;;;;;;2603419;54;20128;31
2023/03/25 07:24:35;;;;;;;6.32;3.10;;;11.50;99.90;;;;;;2602667;54;21104;31
2023/03/25 07:27:13;;;;;;;6.05;3.20;;;11.50;99.90;;;;;;2602585;54;20089;31
2023/03/25 07:29:57;;;;;;;5.72;3.38;;;11.50;99.90;;;;;;2621758;46;20085;31
2023/03/25 07:32:33;;;;;;;7.53;3.55;;;11.50;99.90;;;;;;2603462;54;20030;31
2023/03/25 07:35:11;;;;;;;6.30;3.00;;;11.50;99.90;;;;;;2603287;54;21314;31
2023/03/25 07:37:51;;;;;;;8.63;4.03;;;11.60;99.90;;;;;;2603297;54;20148;31
2023/03/25 07:40:30;;;;;;;5.45;3.28;;;11.50;99.90;;;;;;2602617;54;20106;31
2023/03/25 07:43:04;;;;;;;8.52;3.53;;;11.60;99.90;;;;;;2602652;54;22305;31
2023/03/25 07:45:50;;;;;;;8.52;3.42;;;11.70;99.90;;;;;;2603495;54;20029;31
2023/03/25 07:48:36;;;;;;;5.22;2.70;;;11.70;99.90;;;;;;2603199;54;20081;31
2023/03/25 07:51:11;;;;;;;6.10;3.22;;;11.70;99.90;;;;;;2619889;46;20125;31
2023/03/25 07:53:47;;;;;;;;;;;11.70;99.90;;;;;;2603380;54;20855;31
2023/03/25 07:56:30;;;;;;;6.05;2.70;;;11.70;99.90;;;;;;2615671;46;19964;31
2023/03/25 07:59:10;;;;;;;5.00;2.28;;;11.70;99.90;;;;;;2602265;54;20101;31
2023/03/25 08:01:47;;;;;;;2.70;1.90;;;11.80;99.90;;;;;;2603270;54;20107;31
2023/03/25 08:04:27;;;;;;;6.05;2.42;;;11.80;99.90;;;;;;2603354;54;20026;31
2023/03/25 08:07:03;;;;;;;6.47;2.33;;;11.80;99.90;;;;;;2603241;54;20157;31
2023/03/25 08:09:41;;;;;;;;;;;11.90;99.90;;;;;;2603291;54;20029;31
2023/03/25 08:12:18;;;;;;;4.40;2.00;;;11.90;99.90;;;;;;2628608;46;19933;31
2023/03/25 08:14:55;;;;;;;3.53;1.88;;;12.00;99.90;;;;;;2773051;31;20572;31
2023/03/25 08:17:32;;;;;;;8.40;2.28;;;12.00;99.90;;;;;;2621171;46;20072;31
2023/03/25 08:20:15;;;;;;;2.55;1.50;;;12.10;99.90;;;;;;2701214;39;20489;31
2023/03/25 08:22:56;;;;;;;7.63;1.83;;;12.30;99.90;;;;;;2603086;54;20795;31
2023/03/25 08:25:35;;;;;;;3.35;1.50;;;12.40;99.90;;;;;;2602551;54;20045;31
2023/03/25 08:28:16;;;;;;;3.53;1.50;;;12.60;99.90;;;;;;2621673;46;20095;31
2023/03/25 08:30:54;;;;;;;2.05;1.58;;;12.70;99.90;;;;;;2621588;46;20104;31
2023/03/25 08:33:39;;;;;;;4.30;1.60;;;12.80;99.90;;;;;;2603288;54;20845;31
2023/03/25 08:36:18;;;;;;;6.60;1.73;;;12.80;99.90;;;;;;2608445;47;20748;31
2023/03/25 08:38:56;;;;;;;3.87;1.60;;;12.80;99.90;;;;;;2621468;47;20018;31
2023/03/25 08:41:44;;;;;;;4.82;1.48;;;12.80;99.90;;;;;;2602248;54;21146;31
2023/03/25 08:44:23;;;;;;;2.20;1.20;;;12.80;99.90;;;;;;2603324;54;20029;31
2023/03/25 08:47:02;;;;;;;3.05;0.70;;;12.90;99.90;;;;;;2603118;54;20902;31
2023/03/25 08:49:41;;;;;;;2.72;0.90;;;13.00;99.90;;;;;;2603177;54;20834;31
2023/03/25 08:52:16;;;;;;;1.83;0.65;;;13.00;99.90;;;;;;2602499;54;20034;31
2023/03/25 08:54:59;;;;;;;2.45;0.70;;;13.00;99.90;;;;;;2602398;54;20022;31
2023/03/25 08:57:36;;;;;;;3.67;1.02;;;13.10;99.90;;;;;;2602362;54;20027;31
2023/03/25 09:00:23;;;;;;;3.10;0.90;;;13.10;99.90;;;;;;2602291;54;20116;31
2023/03/25 09:03:02;;;;;;;4.93;0.67;;;13.20;99.90;;;;;;2719908;39;20489;31
2023/03/25 09:05:40;;;;;;;2.60;0.45;;;13.30;99.90;;;;;;2621612;47;20542;31
2023/03/25 09:08:16;;;;;;;2.88;0.40;;;13.30;99.90;;;;;;2602988;54;20056;31
2023/03/25 09:10:57;;;;;;;1.67;0.50;;;13.20;99.90;;;;;;2603408;54;20112;31
2023/03/25 09:13:33;;;;;;;3.38;0.55;;;13.30;99.90;;;;;;2618384;46;20050;31
2023/03/25 09:16:10;;;;;;;;;;;13.30;99.90;;;;;;2603827;54;21251;31
2023/03/25 09:18:50;;;;;;;4.55;0.65;;;13.30;99.90;;;;;;2603057;54;20691;31
2023/03/25 09:21:27;;;;;;;2.53;0.40;;;13.40;99.90;;;;;;2603116;54;20819;31
2023/03/25 09:24:01;;;;;;;;;;;13.40;99.90;;;;;;2622460;46;20887;31
2023/03/25 09:26:40;;;;;;;1.55;0.28;;;13.50;99.90;;;;;;2603656;54;20008;31
2023/03/25 09:29:17;;;;;;;1.48;0.52;;;13.50;99.90;;;;;;2603794;54;20097;31
2023/03/25 09:31:53;;;;;;;1.15;0.50;;;13.50;99.90;;;;;;2603557;54;20022;31
2023/03/25 09:34:37;;;;;;;;;;;13.60;99.90;;;;;;2603281;54;20075;31
2023/03/25 09:37:15;;;;;;;1.80;0.37;;;13.60;99.90;;;;;;2605290;46;19942;31
2023/03/25 09:39:52;;;;;;;0.63;0.22;;;13.60;99.90;;;;;;2602976;54;20026;31
2023/03/25 09:42:37;;;;;;;1.08;0.30;;;13.80;99.90;;;;;;2603135;54;22438;31
2023/03/25 09:45:19;;;;;;;2.10;0.40;;;13.90;99.90;;;;;;2702397;39;20473;31
2023/03/25 09:47:57;;;;;;;3.80;0.30;;;13.90;99.90;;;;;;2602985;54;20640;31
2023/03/25 09:50:40;;;;;;;2.05;0.52;;;14.00;99.90;;;;;;2603721;54;20588;31
2023/03/25 09:53:28;;;;;;;1.77;0.30;;;14.00;99.90;;;;;;2603608;54;20711;31
2023/03/25 09:56:07;;;;;;;2.33;0.30;;;14.10;99.90;;;;;;2603827;54;20030;31
2023/03/25 09:58:44;;;;;;;0.77;0.20;;;14.20;99.90;;;;;;2603621;54;20980;31
2023/03/25 10:01:26;;;;;;;1.60;1.20;;;14.50;99.90;;;;;;2702350;39;20595;31
2023/03/25 10:04:30;;;;;;;1.75;0.52;;;14.90;99.90;;;;;;2603950;54;20859;31
2023/03/25 10:07:14;;;;;;;2.70;0.40;;;15.00;99.90;;;;;;2622391;46;20839;31
2023/03/25 10:09:52;;;;;;;1.13;0.20;;;15.00;99.90;;;;;;2622076;46;20081;31
2023/03/25 10:12:34;;;;;;;0.98;0.35;;;15.00;99.90;;;;;;2622144;46;20845;31
2023/03/25 10:15:15;;;;;;;5.47;0.40;;;15.00;99.90;;;;;;2701375;39;20497;31
2023/03/25 10:18:00;;;;;;;0.70;0.30;;;14.90;99.90;;;;;;2603088;54;20876;31
2023/03/25 10:20:44;;;;;;;1.15;0.50;;;14.90;99.90;;;;;;2622032;46;20032;31
2023/03/25 10:23:26;;;;;;;2.83;0.40;;;15.00;99.90;;;;;;2603524;54;20046;31
2023/03/25 10:26:04;;;;;;;0.73;0.20;;;15.00;99.90;;;;;;2603499;54;20167;31
2023/03/25 10:28:45;;;;;;;1.75;0.65;;;15.20;99.90;;;;;;2602775;54;22508;31
2023/03/25 10:31:22;;;;;;;1.17;0.40;;;15.30;99.90;;;;;;2602750;54;20026;31
2023/03/25 10:33:59;;;;;;;3.00;0.50;;;15.30;99.90;;;;;;2622221;46;20872;31
2023/03/25 10:36:36;;;;;;;1.38;0.47;;;15.40;99.90;;;;;;2603600;54;20029;31
2023/03/25 10:39:32;;;;;;;2.22;0.60;;;15.70;99.90;;;;;;2603251;54;20119;31
2023/03/25 10:42:17;;;;;;;2.30;0.50;;;16.00;99.90;;;;;;2603571;54;20757;31
2023/03/25 10:44:54;;;;;;;1.48;0.30;;;16.20;99.90;;;;;;2603385;54;20035;31
2023/03/25 10:47:32;;;;;;;3.10;0.55;;;16.40;99.90;;;;;;2602685;54;21173;31
2023/03/25 10:50:15;;;;;;;2.30;0.45;;;16.60;99.90;;;;;;2603627;54;20046;31
2023/03/25 10:52:56;;;;;;;1.80;0.57;;;16.70;99.90;;;;;;2603439;54;20104;31
2023/03/25 10:55:36;;;;;;;2.17;0.80;;;16.90;99.90;;;;;;2622016;46;20027;31
2023/03/25 10:58:13;;;;;;;1.48;0.60;;;16.90;99.90;;;;;;2602727;54;20026;31
2023/03/25 11:00:48;;;;;;;2.88;0.60;;;16.80;99.90;;;;;;2603569;54;20056;31
2023/03/25 11:03:29;;;;;;;1.35;0.40;;;16.80;99.90;;;;;;2602809;54;20882;31
2023/03/25 11:06:07;;;;;;;1.43;0.43;;;16.80;99.90;;;;;;2602741;54;21190;31
2023/03/25 11:09:09;;;;;;;1.40;0.40;;;16.80;99.90;;;;;;2602863;54;20262;31
2023/03/25 11:11:47;;;;;;;1.53;0.50;;;16.70;99.90;;;;;;2603616;54;20065;31
2023/03/25 11:14:26;;;;;;;1.38;0.77;;;16.60;99.90;;;;;;2603457;54;20026;31
2023/03/25 11:17:05;;;;;;;2.33;0.40;;;16.30;99.90;;;;;;2603525;54;21671;31
2023/03/25 11:19:43;;;;;;;2.83;0.40;;;16.30;99.90;;;;;;2602486;54;20948;31
2023/03/25 11:22:25;;;;;;;1.67;0.50;;;16.40;99.90;;;;;;2602493;54;20037;31
2023/03/25 11:25:03;;;;;;;2.10;0.40;;;16.50;99.90;;;;;;2602240;54;20034;31
2023/03/25 11:27:47;;;;;;;1.57;0.57;;;16.70;99.90;;;;;;2603024;54;21271;31
2023/03/25 11:30:25;;;;;;;2.50;0.70;;;16.90;99.90;;;;;;2603259;54;21197;31
2023/03/25 11:33:02;;;;;;;1.67;0.60;;;16.90;99.90;;;;;;2603382;54;20033;31
2023/03/25 11:35:41;;;;;;;5.53;1.17;;;16.70;99.90;;;;;;2622019;47;20628;31
2023/03/25 11:38:19;;;;;;;2.45;0.65;;;16.60;99.90;;;;;;2603543;54;20803;31
2023/03/25 11:40:57;;;;;;;4.57;0.60;;;16.50;99.90;;;;;;2603652;54;20045;31
2023/03/25 11:43:37;;;;;;;1.63;0.40;;;16.50;99.90;;;;;;2603235;54;20030;31
2023/03/25 11:46:16;;;;;;;2.25;0.63;;;16.60;99.90;;;;;;2701835;39;20471;31
2023/03/25 11:49:01;;;;;;;1.10;0.55;;;16.80;99.90;;;;;;2602546;54;20918;31
2023/03/25 11:51:36;;;;;;;1.55;0.40;;;16.90;99.90;;;;;;2603153;54;20944;31
2023/03/25 11:54:14;;;;;;;1.08;0.30;;;16.90;99.90;;;;;;2602583;54;20887;31
2023/03/25 11:56:52;;;;;;;1.40;0.40;;;17.00;99.90;;;;;;2619600;46;22401;31
2023/03/25 11:59:40;;;;;;;3.35;0.60;;;16.80;99.90;;;;;;2602618;54;20883;31
2023/03/25 12:02:17;;;;;;;;;;;16.70;99.90;;;;;;2603594;54;20116;31
2023/03/25 12:05:06;;;;;;;3.10;0.30;;;16.40;99.90;;;;;;2611265;46;20802;31
2023/03/25 12:07:44;;;;;;;1.23;0.40;;;16.20;99.90;;;;;;2603030;54;22513;31
2023/03/25 12:10:23;;;;;;;2.65;0.43;;;16.00;99.90;;;;;;2773033;31;20569;31
2023/03/25 12:13:15;;;;;;;1.87;0.60;;;15.80;99.90;;;;;;2602582;54;20896;31
2023/03/25 12:16:09;;;;;;;3.17;0.47;;;15.70;99.90;;;;;;2602444;54;20054;31
2023/03/25 12:18:51;;;;;;;2.58;0.70;;;15.60;99.90;;;;;;2716915;39;20410;31
2023/03/25 12:21:26;;;;;;;4.72;0.47;;;15.50;99.90;;;;;;2603218;54;19953;31
2023/03/25 12:24:13;;;;;;;6.25;0.70;;;15.30;99.90;;;;;;2603413;54;20030;31
2023/03/25 12:26:52;;;;;;;1.45;0.50;;;15.00;99.90;;;;;;2603189;54;20026;31
2023/03/25 12:29:27;;;;;;;4.97;0.90;;;14.70;99.90;;;;;;2602953;54;20824;31
2023/03/25 12:32:30;;;;;;;2.80;0.60;;;14.40;99.90;;;;;;2603165;54;20608;31
2023/03/25 12:35:16;;;;;;;5.20;1.15;;;14.00;99.90;;;;;;2621637;46;20907;31
2023/03/25 12:38:12;;;;;;;3.63;1.10;;;13.70;99.90;;;;;;2602834;54;20018;31
2023/03/25 12:40:56;;;;;;;2.15;0.88;;;13.50;99.90;;;;;;2621745;47;20148;31
2023/03/25 12:43:48;;;;;;;1.77;0.70;;;13.20;99.90;;;;;;2603299;54;20022;31
2023/03/25 12:46:45;;;;;;;1.83;0.83;;;13.00;99.90;;;;;;2622245;47;20566;31
2023/03/25 12:49:37;;;;;;;4.60;1.05;;;12.70;99.90;;;;;;2603806;54;21428;31
2023/03/25 12:52:21;;;;;;;3.72;1.10;;;12.40;99.90;;;;;;2622390;46;20077;31
2023/03/25 12:55:06;;;;;;;4.05;1.30;;;12.10;99.90;;;;;;2603695;54;20049;31
2023/03/25 12:57:51;;;;;;;4.53;1.25;;;12.00;99.90;;;;;;2622703;46;20097;31
2023/03/25 13:00:40;;;;;;;3.07;1.13;;;11.90;99.90;;;;;;2702335;39;20469;31
2023/03/25 13:03:37;;;;;;;3.03;1.58;;;11.90;99.90;;;;;;2622374;46;20616;31
2023/03/25 13:06:25;;;;;;;1.77;0.83;;;11.90;99.90;;;;;;2603931;54;20580;31
2023/03/25 13:09:03;;;;;;;3.42;1.20;;;12.00;99.90;;;;;;2622559;46;20099;31
2023/03/25 13:11:43;;;;;;;5.43;1.95;;;12.10;99.90;;;;;;2622401;46;20042;31
2023/03/25 13:14:22;;;;;;;2.85;0.80;;;12.10;99.90;;;;;;2604049;54;20894;31
2023/03/25 13:17:07;;;;;;;2.63;0.90;;;12.10;99.90;;;;;;2702390;39;21347;31
2023/03/25 13:19:45;;;;;;;2.45;0.50;;;12.20;99.90;;;;;;2603857;54;20070;31
2023/03/25 13:22:30;;;;;;;2.60;0.67;;;12.20;99.90;;;;;;2603662;54;20077;31
2023/03/25 13:25:07;;;;;;;1.60;0.70;;;12.30;99.90;;;;;;2604195;54;20238;31
2023/03/25 13:27:44;;;;;;;1.60;0.50;;;12.40;99.90;;;;;;2603950;54;20033;31
2023/03/25 13:30:29;;;;;;;0.70;0.30;;;12.50;99.90;;;;;;2603687;54;20034;31
2023/03/25 13:33:09;;;;;;;0.75;0.20;;;12.50;99.90;;;;;;2622029;46;20026;31
2023/03/25 13:35:47;;;;;;;0.73;0.30;;;12.50;99.90;;;;;;2773873;31;20604;31
2023/03/25 13:38:30;;;;;;;0.43;0.20;;;12.60;99.90;;;;;;2702589;39;20481;31
2023/03/25 13:41:11;;;;;;;0.75;0.20;;;12.60;99.90;;;;;;2603754;54;20031;31
2023/03/25 13:43:56;;;;;;;0.90;0.30;;;12.70;99.90;;;;;;2603635;46;20050;31
2023/03/25 13:46:38;;;;;;;0.90;0.10;;;12.70;99.90;;;;;;2603687;54;20037;31
2023/03/25 13:49:18;;;;;;;0.60;0.20;;;12.70;99.90;;;;;;2603709;54;20022;31
2023/03/25 13:52:04;;;;;;;1.00;0.20;;;12.70;99.90;;;;;;2622465;46;20028;31
2023/03/25 13:54:44;;;;;;;0.70;0.20;;;12.60;99.90;;;;;;2622388;46;20029;31
2023/03/25 13:57:44;;;;;;;2.03;0.30;;;12.60;99.90;;;;;;2602531;54;20031;31
2023/03/25 14:00:33;;;;;;;0.90;0.40;;;12.50;99.90;;;;;;2603716;54;20031;31
2023/03/25 14:03:25;;;;;;;1.75;0.40;;;12.50;99.90;;;;;;2773396;31;21550;31
2023/03/25 14:06:28;;;;;;;1.35;0.40;;;12.40;99.90;;;;;;2622400;46;20030;31
2023/03/25 14:09:03;;;;;;;1.30;0.40;;;12.40;99.90;;;;;;2603690;54;20126;31
2023/03/25 14:11:43;;;;;;;1.23;0.57;;;12.40;99.90;;;;;;2621330;46;20023;31
2023/03/25 14:14:21;;;;;;;1.00;0.50;;;12.40;99.90;;;;;;2603763;54;20027;31
2023/03/25 14:16:57;;;;;;;1.35;0.50;;;12.60;99.90;;;;;;2603679;54;20380;31